sensor_id;sensor_type;location;lat;lon;timestamp;pressure;altitude;pressure_sealevel;temperature;humidity
62946;BME280;52164;52.212;-1.010;2023-04-09T00:01:40;101567.55;;;7.45;68.26
62946;BME280;52164;52.212;-1.010;2023-04-09T00:04:05;101566.13;;;7.45;68.58
62946;BME280;52164;52.212;-1.010;2023-04-09T00:06:30;101567.16;;;7.44;68.43
62946;BME280;52164;52.212;-1.010;2023-04-09T00:08:56;101564.91;;;7.46;68.75
62946;BME280;52164;52.212;-1.010;2023-04-09T00:11:21;101559.65;;;7.48;68.49
62946;BME280;52164;52.212;-1.010;2023-04-09T00:13:46;101555.63;;;7.50;68.69
62946;BME280;52164;52.212;-1.010;2023-04-09T00:16:11;101554.27;;;7.53;69.24
62946;BME280;52164;52.212;-1.010;2023-04-09T00:18:37;101548.99;;;7.54;69.62
62946;BME280;52164;52.212;-1.010;2023-04-09T00:21:03;101542.14;;;7.57;69.33
62946;BME280;52164;52.212;-1.010;2023-04-09T00:23:28;101541.16;;;7.61;69.58
62946;BME280;52164;52.212;-1.010;2023-04-09T00:25:53;101537.26;;;7.61;69.00
62946;BME280;52164;52.212;-1.010;2023-04-09T00:28:20;101534.08;;;7.61;68.97
62946;BME280;52164;52.212;-1.010;2023-04-09T00:30:46;101532.52;;;7.63;69.44
62946;BME280;52164;52.212;-1.010;2023-04-09T00:33:11;101531.08;;;7.62;69.56
62946;BME280;52164;52.212;-1.010;2023-04-09T00:35:36;101526.98;;;7.62;69.31
62946;BME280;52164;52.212;-1.010;2023-04-09T00:38:02;101529.30;;;7.61;69.74
62946;BME280;52164;52.212;-1.010;2023-04-09T00:40:27;101526.73;;;7.60;69.30
62946;BME280;52164;52.212;-1.010;2023-04-09T00:42:52;101528.99;;;7.57;69.03
62946;BME280;52164;52.212;-1.010;2023-04-09T00:45:17;101526.44;;;7.54;69.01
62946;BME280;52164;52.212;-1.010;2023-04-09T00:47:43;101520.84;;;7.51;69.02
62946;BME280;52164;52.212;-1.010;2023-04-09T00:50:10;101517.70;;;7.47;69.18
62946;BME280;52164;52.212;-1.010;2023-04-09T00:52:35;101516.02;;;7.44;69.54
62946;BME280;52164;52.212;-1.010;2023-04-09T00:55:02;101507.73;;;7.41;69.78
62946;BME280;52164;52.212;-1.010;2023-04-09T00:57:28;101506.09;;;7.39;69.79
62946;BME280;52164;52.212;-1.010;2023-04-09T00:59:53;101503.21;;;7.37;70.17
62946;BME280;52164;52.212;-1.010;2023-04-09T01:02:19;101496.80;;;7.37;70.09
62946;BME280;52164;52.212;-1.010;2023-04-09T01:04:44;101492.17;;;7.36;70.43
62946;BME280;52164;52.212;-1.010;2023-04-09T01:09:23;101489.14;;;7.36;70.46
62946;BME280;52164;52.212;-1.010;2023-04-09T01:12:25;101481.84;;;7.35;70.66
62946;BME280;52164;52.212;-1.010;2023-04-09T01:14:56;101485.05;;;7.36;70.61
62946;BME280;52164;52.212;-1.010;2023-04-09T01:17:25;101484.17;;;7.36;70.70
62946;BME280;52164;52.212;-1.010;2023-04-09T01:20:03;101484.51;;;7.35;71.02
62946;BME280;52164;52.212;-1.010;2023-04-09T01:23:37;101478.95;;;7.34;71.27
62946;BME280;52164;52.212;-1.010;2023-04-09T01:27:25;101479.61;;;7.32;71.05
62946;BME280;52164;52.212;-1.010;2023-04-09T01:28:16;101477.12;;;7.32;71.07
62946;BME280;52164;52.212;-1.010;2023-04-09T01:30:47;101478.16;;;7.31;71.10
62946;BME280;52164;52.212;-1.010;2023-04-09T01:33:13;101472.44;;;7.30;71.12
62946;BME280;52164;52.212;-1.010;2023-04-09T01:35:40;101471.17;;;7.28;71.15
62946;BME280;52164;52.212;-1.010;2023-04-09T01:38:06;101473.23;;;7.26;71.82
62946;BME280;52164;52.212;-1.010;2023-04-09T01:40:32;101470.15;;;7.24;71.77
62946;BME280;52164;52.212;-1.010;2023-04-09T01:42:58;101471.83;;;7.21;71.47
62946;BME280;52164;52.212;-1.010;2023-04-09T01:45:25;101470.86;;;7.18;71.29
62946;BME280;52164;52.212;-1.010;2023-04-09T01:47:50;101472.03;;;7.15;71.54
62946;BME280;52164;52.212;-1.010;2023-04-09T01:50:16;101477.98;;;7.13;71.83
62946;BME280;52164;52.212;-1.010;2023-04-09T01:52:42;101477.88;;;7.09;71.57
62946;BME280;52164;52.212;-1.010;2023-04-09T01:55:07;101477.41;;;7.05;71.64
62946;BME280;52164;52.212;-1.010;2023-04-09T01:57:33;101474.52;;;7.03;71.96
62946;BME280;52164;52.212;-1.010;2023-04-09T01:59:58;101471.61;;;7.01;71.84
62946;BME280;52164;52.212;-1.010;2023-04-09T02:02:26;101473.75;;;7.01;72.03
62946;BME280;52164;52.212;-1.010;2023-04-09T02:04:52;101470.19;;;7.01;71.98
62946;BME280;52164;52.212;-1.010;2023-04-09T02:07:37;101469.94;;;7.05;72.13
62946;BME280;52164;52.212;-1.010;2023-04-09T02:10:02;101471.33;;;7.10;72.31
62946;BME280;52164;52.212;-1.010;2023-04-09T02:12:29;101474.16;;;7.15;71.94
62946;BME280;52164;52.212;-1.010;2023-04-09T02:14:55;101476.27;;;7.21;72.34
62946;BME280;52164;52.212;-1.010;2023-04-09T02:17:21;101479.83;;;7.27;72.53
62946;BME280;52164;52.212;-1.010;2023-04-09T02:19:47;101476.27;;;7.33;72.48
62946;BME280;52164;52.212;-1.010;2023-04-09T02:22:13;101470.23;;;7.40;72.38
62946;BME280;52164;52.212;-1.010;2023-04-09T02:24:41;101473.96;;;7.46;72.50
62946;BME280;52164;52.212;-1.010;2023-04-09T02:27:07;101473.90;;;7.50;72.64
62946;BME280;52164;52.212;-1.010;2023-04-09T02:29:32;101471.49;;;7.53;72.69
62946;BME280;52164;52.212;-1.010;2023-04-09T02:32:00;101472.48;;;7.56;72.36
62946;BME280;52164;52.212;-1.010;2023-04-09T02:34:26;101472.20;;;7.59;72.59
62946;BME280;52164;52.212;-1.010;2023-04-09T02:36:51;101469.78;;;7.62;72.33
62946;BME280;52164;52.212;-1.010;2023-04-09T02:39:17;101472.16;;;7.64;72.61
62946;BME280;52164;52.212;-1.010;2023-04-09T02:41:42;101471.27;;;7.64;72.64
62946;BME280;52164;52.212;-1.010;2023-04-09T02:44:08;101468.43;;;7.64;72.70
62946;BME280;52164;52.212;-1.010;2023-04-09T02:46:34;101466.84;;;7.65;72.71
62946;BME280;52164;52.212;-1.010;2023-04-09T02:48:59;101465.92;;;7.64;72.88
62946;BME280;52164;52.212;-1.010;2023-04-09T02:51:24;101458.27;;;7.63;72.79
62946;BME280;52164;52.212;-1.010;2023-04-09T02:53:50;101456.63;;;7.62;72.83
62946;BME280;52164;52.212;-1.010;2023-04-09T02:56:15;101457.50;;;7.61;73.12
62946;BME280;52164;52.212;-1.010;2023-04-09T02:58:41;101455.09;;;7.57;73.05
62946;BME280;52164;52.212;-1.010;2023-04-09T03:01:06;101453.97;;;7.55;73.40
62946;BME280;52164;52.212;-1.010;2023-04-09T03:03:31;101451.42;;;7.52;73.17
62946;BME280;52164;52.212;-1.010;2023-04-09T03:05:57;101449.61;;;7.51;72.86
62946;BME280;52164;52.212;-1.010;2023-04-09T03:08:22;101449.93;;;7.50;72.90
62946;BME280;52164;52.212;-1.010;2023-04-09T03:10:47;101446.98;;;7.47;72.73
62946;BME280;52164;52.212;-1.010;2023-04-09T03:13:12;101444.95;;;7.43;73.04
62946;BME280;52164;52.212;-1.010;2023-04-09T03:15:38;101447.13;;;7.38;73.10
62946;BME280;52164;52.212;-1.010;2023-04-09T03:18:03;101446.53;;;7.36;73.32
62946;BME280;52164;52.212;-1.010;2023-04-09T03:20:28;101446.79;;;7.33;73.28
62946;BME280;52164;52.212;-1.010;2023-04-09T03:22:54;101447.33;;;7.33;73.34
62946;BME280;52164;52.212;-1.010;2023-04-09T03:25:19;101447.16;;;7.34;73.17
62946;BME280;52164;52.212;-1.010;2023-04-09T03:27:45;101446.88;;;7.36;73.18
62946;BME280;52164;52.212;-1.010;2023-04-09T03:30:10;101449.25;;;7.39;73.32
62946;BME280;52164;52.212;-1.010;2023-04-09T03:32:36;101447.80;;;7.44;73.64
62946;BME280;52164;52.212;-1.010;2023-04-09T03:35:01;101447.53;;;7.47;73.35
62946;BME280;52164;52.212;-1.010;2023-04-09T03:37:26;101449.62;;;7.51;73.81
62946;BME280;52164;52.212;-1.010;2023-04-09T03:39:51;101450.62;;;7.56;73.29
62946;BME280;52164;52.212;-1.010;2023-04-09T03:42:17;101447.93;;;7.62;73.44
62946;BME280;52164;52.212;-1.010;2023-04-09T03:44:42;101444.01;;;7.68;73.64
62946;BME280;52164;52.212;-1.010;2023-04-09T03:47:07;101445.48;;;7.70;73.34
62946;BME280;52164;52.212;-1.010;2023-04-09T03:49:34;101447.09;;;7.70;73.34
62946;BME280;52164;52.212;-1.010;2023-04-09T03:51:59;101450.63;;;7.69;73.20
62946;BME280;52164;52.212;-1.010;2023-04-09T03:54:27;101447.02;;;7.68;73.01
62946;BME280;52164;52.212;-1.010;2023-04-09T03:56:53;101448.96;;;7.67;73.29
62946;BME280;52164;52.212;-1.010;2023-04-09T03:59:18;101446.83;;;7.67;73.09
62946;BME280;52164;52.212;-1.010;2023-04-09T04:01:43;101448.02;;;7.65;73.00
62946;BME280;52164;52.212;-1.010;2023-04-09T04:04:09;101440.51;;;7.63;73.27
62946;BME280;52164;52.212;-1.010;2023-04-09T04:06:34;101441.08;;;7.65;73.25
62946;BME280;52164;52.212;-1.010;2023-04-09T04:09:00;101437.52;;;7.64;73.27
62946;BME280;52164;52.212;-1.010;2023-04-09T04:11:25;101434.45;;;7.63;73.32
62946;BME280;52164;52.212;-1.010;2023-04-09T04:13:50;101433.39;;;7.63;73.10
62946;BME280;52164;52.212;-1.010;2023-04-09T04:16:16;101428.90;;;7.61;72.94
62946;BME280;52164;52.212;-1.010;2023-04-09T04:18:41;101423.70;;;7.59;73.33
62946;BME280;52164;52.212;-1.010;2023-04-09T04:21:11;101418.31;;;7.57;73.08
62946;BME280;52164;52.212;-1.010;2023-04-09T04:23:36;101413.96;;;7.53;73.61
62946;BME280;52164;52.212;-1.010;2023-04-09T04:26:07;101418.15;;;7.51;73.45
62946;BME280;52164;52.212;-1.010;2023-04-09T04:28:34;101417.23;;;7.50;73.47
62946;BME280;52164;52.212;-1.010;2023-04-09T04:31:00;101416.27;;;7.48;73.62
62946;BME280;52164;52.212;-1.010;2023-04-09T04:33:25;101410.86;;;7.44;74.09
62946;BME280;52164;52.212;-1.010;2023-04-09T04:35:50;101406.50;;;7.40;73.89
62946;BME280;52164;52.212;-1.010;2023-04-09T04:38:16;101404.10;;;7.37;73.79
62946;BME280;52164;52.212;-1.010;2023-04-09T04:40:41;101400.77;;;7.32;73.95
62946;BME280;52164;52.212;-1.010;2023-04-09T04:43:06;101401.04;;;7.29;73.66
62946;BME280;52164;52.212;-1.010;2023-04-09T04:45:32;101390.63;;;7.25;74.04
62946;BME280;52164;52.212;-1.010;2023-04-09T04:47:57;101388.20;;;7.20;74.02
62946;BME280;52164;52.212;-1.010;2023-04-09T04:50:22;101385.27;;;7.17;74.05
62946;BME280;52164;52.212;-1.010;2023-04-09T04:52:48;101389.08;;;7.14;74.09
62946;BME280;52164;52.212;-1.010;2023-04-09T04:55:13;101387.60;;;7.12;74.27
62946;BME280;52164;52.212;-1.010;2023-04-09T04:57:38;101386.48;;;7.10;73.89
62946;BME280;52164;52.212;-1.010;2023-04-09T05:00:03;101382.10;;;7.05;74.23
62946;BME280;52164;52.212;-1.010;2023-04-09T05:02:29;101383.09;;;7.03;74.46
62946;BME280;52164;52.212;-1.010;2023-04-09T05:04:54;101380.70;;;7.00;74.22
62946;BME280;52164;52.212;-1.010;2023-04-09T05:07:20;101373.88;;;6.97;74.60
62946;BME280;52164;52.212;-1.010;2023-04-09T05:09:45;101371.85;;;6.94;74.62
62946;BME280;52164;52.212;-1.010;2023-04-09T05:12:10;101369.95;;;6.90;74.59
62946;BME280;52164;52.212;-1.010;2023-04-09T05:14:36;101368.95;;;6.86;74.46
62946;BME280;52164;52.212;-1.010;2023-04-09T05:17:01;101369.71;;;6.82;74.90
62946;BME280;52164;52.212;-1.010;2023-04-09T05:19:26;101370.64;;;6.77;74.83
62946;BME280;52164;52.212;-1.010;2023-04-09T05:21:51;101369.29;;;6.73;75.21
62946;BME280;52164;52.212;-1.010;2023-04-09T05:24:17;101367.61;;;6.70;75.11
62946;BME280;52164;52.212;-1.010;2023-04-09T05:26:45;101363.98;;;6.68;74.97
62946;BME280;52164;52.212;-1.010;2023-04-09T05:29:10;101366.10;;;6.67;75.21
62946;BME280;52164;52.212;-1.010;2023-04-09T05:31:36;101373.20;;;6.67;75.26
62946;BME280;52164;52.212;-1.010;2023-04-09T05:34:04;101374.98;;;6.68;75.15
62946;BME280;52164;52.212;-1.010;2023-04-09T05:36:30;101377.89;;;6.70;75.25
62946;BME280;52164;52.212;-1.010;2023-04-09T05:38:56;101379.67;;;6.70;75.52
62946;BME280;52164;52.212;-1.010;2023-04-09T05:41:21;101384.02;;;6.74;75.84
62946;BME280;52164;52.212;-1.010;2023-04-09T05:43:47;101386.05;;;6.76;75.88
62946;BME280;52164;52.212;-1.010;2023-04-09T05:46:12;101384.17;;;6.79;75.64
62946;BME280;52164;52.212;-1.010;2023-04-09T05:48:37;101380.69;;;6.80;75.49
62946;BME280;52164;52.212;-1.010;2023-04-09T05:51:03;101372.36;;;6.81;75.39
62946;BME280;52164;52.212;-1.010;2023-04-09T05:53:28;101366.75;;;6.83;75.34
62946;BME280;52164;52.212;-1.010;2023-04-09T05:55:55;101361.83;;;6.85;75.24
62946;BME280;52164;52.212;-1.010;2023-04-09T05:58:20;101355.83;;;6.86;75.03
62946;BME280;52164;52.212;-1.010;2023-04-09T06:00:46;101358.64;;;6.85;75.05
62946;BME280;52164;52.212;-1.010;2023-04-09T06:03:11;101361.80;;;6.84;75.07
62946;BME280;52164;52.212;-1.010;2023-04-09T06:05:37;101364.65;;;6.84;75.33
62946;BME280;52164;52.212;-1.010;2023-04-09T06:08:02;101369.12;;;6.86;75.53
62946;BME280;52164;52.212;-1.010;2023-04-09T06:10:27;101367.45;;;6.90;75.57
62946;BME280;52164;52.212;-1.010;2023-04-09T06:12:53;101370.62;;;6.95;75.37
62946;BME280;52164;52.212;-1.010;2023-04-09T06:15:19;101364.93;;;7.01;75.64
62946;BME280;52164;52.212;-1.010;2023-04-09T06:17:44;101357.08;;;7.06;75.52
62946;BME280;52164;52.212;-1.010;2023-04-09T06:20:10;101351.76;;;7.12;75.65
62946;BME280;52164;52.212;-1.010;2023-04-09T06:22:35;101346.83;;;7.20;75.63
62946;BME280;52164;52.212;-1.010;2023-04-09T06:25:01;101347.02;;;7.27;75.38
62946;BME280;52164;52.212;-1.010;2023-04-09T06:27:26;101343.59;;;7.33;75.27
62946;BME280;52164;52.212;-1.010;2023-04-09T06:29:51;101341.61;;;7.38;75.21
62946;BME280;52164;52.212;-1.010;2023-04-09T06:32:16;101339.73;;;7.40;75.06
62946;BME280;52164;52.212;-1.010;2023-04-09T06:34:44;101340.04;;;7.46;75.23
62946;BME280;52164;52.212;-1.010;2023-04-09T06:37:09;101343.41;;;7.52;75.10
62946;BME280;52164;52.212;-1.010;2023-04-09T06:39:34;101344.52;;;7.61;75.20
62946;BME280;52164;52.212;-1.010;2023-04-09T06:42:00;101339.16;;;7.67;74.81
62946;BME280;52164;52.212;-1.010;2023-04-09T06:44:25;101333.98;;;7.73;74.91
62946;BME280;52164;52.212;-1.010;2023-04-09T06:46:51;101330.40;;;7.79;74.53
62946;BME280;52164;52.212;-1.010;2023-04-09T06:49:16;101322.98;;;7.81;74.19
62946;BME280;52164;52.212;-1.010;2023-04-09T06:51:41;101319.05;;;7.81;74.16
62946;BME280;52164;52.212;-1.010;2023-04-09T06:54:07;101320.84;;;7.81;74.24
62946;BME280;52164;52.212;-1.010;2023-04-09T06:56:33;101320.67;;;7.81;74.18
62946;BME280;52164;52.212;-1.010;2023-04-09T06:58:58;101321.05;;;7.82;74.01
62946;BME280;52164;52.212;-1.010;2023-04-09T07:01:23;101324.85;;;7.84;74.13
62946;BME280;52164;52.212;-1.010;2023-04-09T07:03:49;101329.23;;;7.90;74.06
62946;BME280;52164;52.212;-1.010;2023-04-09T07:06:15;101336.84;;;7.96;73.96
62946;BME280;52164;52.212;-1.010;2023-04-09T07:08:40;101342.36;;;8.04;74.17
62946;BME280;52164;52.212;-1.010;2023-04-09T07:11:05;101339.88;;;8.12;73.74
62946;BME280;52164;52.212;-1.010;2023-04-09T07:13:31;101331.68;;;8.19;73.77
62946;BME280;52164;52.212;-1.010;2023-04-09T07:15:56;101328.17;;;8.29;73.39
62946;BME280;52164;52.212;-1.010;2023-04-09T07:18:22;101326.73;;;8.35;73.40
62946;BME280;52164;52.212;-1.010;2023-04-09T07:20:47;101328.77;;;8.39;72.97
62946;BME280;52164;52.212;-1.010;2023-04-09T07:23:12;101330.84;;;8.44;72.88
62946;BME280;52164;52.212;-1.010;2023-04-09T07:25:38;101326.48;;;8.48;73.17
62946;BME280;52164;52.212;-1.010;2023-04-09T07:28:03;101333.71;;;8.52;72.80
62946;BME280;52164;52.212;-1.010;2023-04-09T07:30:28;101330.41;;;8.56;72.87
62946;BME280;52164;52.212;-1.010;2023-04-09T07:32:54;101333.02;;;8.62;72.67
62946;BME280;52164;52.212;-1.010;2023-04-09T07:35:21;101335.60;;;8.66;72.38
62946;BME280;52164;52.212;-1.010;2023-04-09T07:37:46;101340.14;;;8.71;72.33
62946;BME280;52164;52.212;-1.010;2023-04-09T07:40:12;101339.83;;;8.73;71.88
62946;BME280;52164;52.212;-1.010;2023-04-09T07:42:37;101335.55;;;8.73;71.78
62946;BME280;52164;52.212;-1.010;2023-04-09T07:45:03;101330.79;;;8.74;71.76
62946;BME280;52164;52.212;-1.010;2023-04-09T07:47:29;101329.83;;;8.80;71.88
62946;BME280;52164;52.212;-1.010;2023-04-09T07:49:54;101330.12;;;8.86;71.68
62946;BME280;52164;52.212;-1.010;2023-04-09T07:52:19;101325.40;;;8.90;71.37
62946;BME280;52164;52.212;-1.010;2023-04-09T07:54:45;101318.16;;;8.93;71.54
62946;BME280;52164;52.212;-1.010;2023-04-09T07:57:10;101318.77;;;8.97;71.10
62946;BME280;52164;52.212;-1.010;2023-04-09T07:59:35;101316.11;;;8.97;70.81
62946;BME280;52164;52.212;-1.010;2023-04-09T08:02:00;101310.40;;;8.96;70.89
62946;BME280;52164;52.212;-1.010;2023-04-09T08:04:26;101311.71;;;9.00;70.83
62946;BME280;52164;52.212;-1.010;2023-04-09T08:06:51;101311.96;;;9.04;70.53
62946;BME280;52164;52.212;-1.010;2023-04-09T08:09:18;101318.59;;;9.06;70.77
62946;BME280;52164;52.212;-1.010;2023-04-09T08:11:44;101313.52;;;9.11;70.66
62946;BME280;52164;52.212;-1.010;2023-04-09T08:14:10;101313.45;;;9.17;70.57
62946;BME280;52164;52.212;-1.010;2023-04-09T08:16:38;101313.06;;;9.25;70.40
62946;BME280;52164;52.212;-1.010;2023-04-09T08:19:04;101311.89;;;9.29;70.06
62946;BME280;52164;52.212;-1.010;2023-04-09T08:21:29;101308.05;;;9.33;70.05
62946;BME280;52164;52.212;-1.010;2023-04-09T08:23:56;101311.69;;;9.38;69.69
62946;BME280;52164;52.212;-1.010;2023-04-09T08:26:25;101311.79;;;9.44;69.77
62946;BME280;52164;52.212;-1.010;2023-04-09T08:28:53;101312.26;;;9.50;69.55
62946;BME280;52164;52.212;-1.010;2023-04-09T08:31:18;101316.00;;;9.60;69.62
62946;BME280;52164;52.212;-1.010;2023-04-09T08:33:43;101315.99;;;9.71;69.56
62946;BME280;52164;52.212;-1.010;2023-04-09T08:36:10;101312.45;;;9.83;69.43
62946;BME280;52164;52.212;-1.010;2023-04-09T08:38:35;101312.71;;;10.01;68.99
62946;BME280;52164;52.212;-1.010;2023-04-09T08:41:01;101319.77;;;10.19;68.87
62946;BME280;52164;52.212;-1.010;2023-04-09T08:43:26;101326.76;;;10.44;68.12
62946;BME280;52164;52.212;-1.010;2023-04-09T08:45:52;101329.16;;;10.65;67.94
62946;BME280;52164;52.212;-1.010;2023-04-09T08:48:21;101323.85;;;10.83;67.70
62946;BME280;52164;52.212;-1.010;2023-04-09T08:50:47;101321.37;;;11.00;67.55
62946;BME280;52164;52.212;-1.010;2023-04-09T08:53:13;101318.98;;;11.10;66.79
62946;BME280;52164;52.212;-1.010;2023-04-09T08:55:39;101323.39;;;11.23;66.36
62946;BME280;52164;52.212;-1.010;2023-04-09T08:58:05;101324.60;;;11.36;66.47
62946;BME280;52164;52.212;-1.010;2023-04-09T09:00:31;101323.79;;;11.45;66.00
62946;BME280;52164;52.212;-1.010;2023-04-09T09:03:01;101321.54;;;11.53;65.44
62946;BME280;52164;52.212;-1.010;2023-04-09T09:05:43;101314.42;;;11.58;65.45
62946;BME280;52164;52.212;-1.010;2023-04-09T09:08:10;101311.48;;;11.67;65.19
62946;BME280;52164;52.212;-1.010;2023-04-09T09:10:36;101310.25;;;11.72;64.97
62946;BME280;52164;52.212;-1.010;2023-04-09T09:13:03;101302.77;;;11.75;65.07
62946;BME280;52164;52.212;-1.010;2023-04-09T09:15:40;101303.91;;;11.84;64.74
62946;BME280;52164;52.212;-1.010;2023-04-09T09:18:05;101304.34;;;11.93;64.17
62946;BME280;52164;52.212;-1.010;2023-04-09T09:20:31;101308.69;;;11.98;64.04
62946;BME280;52164;52.212;-1.010;2023-04-09T09:22:56;101311.63;;;12.08;64.13
62946;BME280;52164;52.212;-1.010;2023-04-09T09:25:22;101304.19;;;12.20;63.50
62946;BME280;52164;52.212;-1.010;2023-04-09T09:27:49;101301.23;;;12.37;63.41
62946;BME280;52164;52.212;-1.010;2023-04-09T09:30:20;101305.78;;;12.52;63.38
62946;BME280;52164;52.212;-1.010;2023-04-09T09:32:46;101297.42;;;12.65;63.13
62946;BME280;52164;52.212;-1.010;2023-04-09T09:35:13;101297.08;;;12.67;63.28
62946;BME280;52164;52.212;-1.010;2023-04-09T09:37:38;101292.07;;;12.69;63.27
62946;BME280;52164;52.212;-1.010;2023-04-09T09:40:03;101284.73;;;12.71;62.80
62946;BME280;52164;52.212;-1.010;2023-04-09T09:42:29;101282.92;;;12.68;62.48
62946;BME280;52164;52.212;-1.010;2023-04-09T09:44:54;101274.86;;;12.65;62.30
62946;BME280;52164;52.212;-1.010;2023-04-09T09:47:20;101277.18;;;12.66;62.29
62946;BME280;52164;52.212;-1.010;2023-04-09T09:49:47;101272.39;;;12.74;62.22
62946;BME280;52164;52.212;-1.010;2023-04-09T09:52:13;101266.51;;;12.84;62.15
62946;BME280;52164;52.212;-1.010;2023-04-09T09:54:40;101264.36;;;12.85;61.69
62946;BME280;52164;52.212;-1.010;2023-04-09T09:57:07;101260.79;;;12.93;61.76
62946;BME280;52164;52.212;-1.010;2023-04-09T09:59:36;101259.58;;;13.08;61.75
62946;BME280;52164;52.212;-1.010;2023-04-09T10:02:03;101255.48;;;13.26;61.27
62946;BME280;52164;52.212;-1.010;2023-04-09T10:04:31;101249.41;;;13.48;60.61
62946;BME280;52164;52.212;-1.010;2023-04-09T10:06:57;101250.48;;;13.64;60.56
62946;BME280;52164;52.212;-1.010;2023-04-09T10:09:26;101248.50;;;13.72;60.12
62946;BME280;52164;52.212;-1.010;2023-04-09T10:11:52;101246.69;;;13.81;60.02
62946;BME280;52164;52.212;-1.010;2023-04-09T10:14:20;101240.58;;;13.91;59.34
62946;BME280;52164;52.212;-1.010;2023-04-09T10:16:46;101244.11;;;14.10;59.23
62946;BME280;52164;52.212;-1.010;2023-04-09T10:19:11;101241.96;;;14.08;58.15
62946;BME280;52164;52.212;-1.010;2023-04-09T10:21:41;101238.95;;;13.97;58.30
62946;BME280;52164;52.212;-1.010;2023-04-09T10:24:07;101234.98;;;13.99;58.77
62946;BME280;52164;52.212;-1.010;2023-04-09T10:26:34;101230.87;;;13.97;58.75
62946;BME280;52164;52.212;-1.010;2023-04-09T10:29:08;101232.29;;;14.02;58.89
62946;BME280;52164;52.212;-1.010;2023-04-09T10:31:53;101226.71;;;14.07;58.85
62946;BME280;52164;52.212;-1.010;2023-04-09T10:34:20;101224.21;;;14.06;58.29
62946;BME280;52164;52.212;-1.010;2023-04-09T10:36:51;101228.70;;;14.01;58.26
62946;BME280;52164;52.212;-1.010;2023-04-09T10:39:18;101226.49;;;14.15;58.46
62946;BME280;52164;52.212;-1.010;2023-04-09T10:41:43;101222.85;;;14.32;58.13
62946;BME280;52164;52.212;-1.010;2023-04-09T10:44:18;101220.30;;;14.40;58.40
62946;BME280;52164;52.212;-1.010;2023-04-09T10:46:44;101215.81;;;14.43;57.80
62946;BME280;52164;52.212;-1.010;2023-04-09T10:51:36;101208.23;;;14.85;57.34
62946;BME280;52164;52.212;-1.010;2023-04-09T10:54:03;101199.72;;;14.96;56.33
62946;BME280;52164;52.212;-1.010;2023-04-09T10:56:30;101194.43;;;15.04;56.05
62946;BME280;52164;52.212;-1.010;2023-04-09T10:58:55;101192.14;;;15.01;55.88
62946;BME280;52164;52.212;-1.010;2023-04-09T11:01:20;101182.55;;;15.07;55.93
62946;BME280;52164;52.212;-1.010;2023-04-09T11:03:46;101179.03;;;15.21;55.09
62946;BME280;52164;52.212;-1.010;2023-04-09T11:06:29;101175.35;;;15.30;55.17
62946;BME280;52164;52.212;-1.010;2023-04-09T11:08:55;101163.86;;;15.28;54.97
62946;BME280;52164;52.212;-1.010;2023-04-09T11:11:29;101157.40;;;15.27;55.42
62946;BME280;52164;52.212;-1.010;2023-04-09T11:13:57;101152.08;;;15.39;54.81
62946;BME280;52164;52.212;-1.010;2023-04-09T11:16:23;101143.00;;;15.46;54.22
62946;BME280;52164;52.212;-1.010;2023-04-09T11:18:48;101138.42;;;15.54;53.96
62946;BME280;52164;52.212;-1.010;2023-04-09T11:21:16;101133.30;;;15.79;54.27
62946;BME280;52164;52.212;-1.010;2023-04-09T11:23:48;101130.40;;;15.83;53.72
62946;BME280;52164;52.212;-1.010;2023-04-09T11:26:15;101133.36;;;15.92;53.17
62946;BME280;52164;52.212;-1.010;2023-04-09T11:28:41;101132.23;;;16.12;52.68
62946;BME280;52164;52.212;-1.010;2023-04-09T11:31:07;101131.27;;;16.28;52.27
62946;BME280;52164;52.212;-1.010;2023-04-09T11:33:33;101126.26;;;16.39;52.60
62946;BME280;52164;52.212;-1.010;2023-04-09T11:35:58;101118.58;;;16.59;52.09
62946;BME280;52164;52.212;-1.010;2023-04-09T11:38:24;101120.33;;;16.86;52.04
62946;BME280;52164;52.212;-1.010;2023-04-09T11:40:49;101116.70;;;17.10;51.46
62946;BME280;52164;52.212;-1.010;2023-04-09T11:43:15;101109.91;;;17.27;50.87
62946;BME280;52164;52.212;-1.010;2023-04-09T11:45:41;101104.73;;;17.43;50.87
62946;BME280;52164;52.212;-1.010;2023-04-09T11:48:07;101096.70;;;17.58;50.35
62946;BME280;52164;52.212;-1.010;2023-04-09T11:50:32;101089.61;;;17.78;50.15
62946;BME280;52164;52.212;-1.010;2023-04-09T11:52:58;101085.16;;;17.94;49.34
62946;BME280;52164;52.212;-1.010;2023-04-09T11:55:25;101086.47;;;17.92;48.84
62946;BME280;52164;52.212;-1.010;2023-04-09T11:57:51;101078.49;;;18.10;49.29
62946;BME280;52164;52.212;-1.010;2023-04-09T12:00:18;101081.67;;;18.29;49.53
62946;BME280;52164;52.212;-1.010;2023-04-09T12:02:45;101085.80;;;18.45;48.76
62946;BME280;52164;52.212;-1.010;2023-04-09T12:05:11;101077.91;;;18.51;47.57
62946;BME280;52164;52.212;-1.010;2023-04-09T12:07:38;101082.71;;;18.69;47.42
62946;BME280;52164;52.212;-1.010;2023-04-09T12:10:04;101076.08;;;18.60;47.39
62946;BME280;52164;52.212;-1.010;2023-04-09T12:12:38;101076.14;;;18.57;47.59
62946;BME280;52164;52.212;-1.010;2023-04-09T12:15:31;101074.85;;;18.65;47.73
62946;BME280;52164;52.212;-1.010;2023-04-09T12:17:50;101067.42;;;18.89;47.11
62946;BME280;52164;52.212;-1.010;2023-04-09T12:20:47;101058.93;;;19.10;46.86
62946;BME280;52164;52.212;-1.010;2023-04-09T12:23:02;101057.89;;;19.28;46.22
62946;BME280;52164;52.212;-1.010;2023-04-09T12:25:32;101051.63;;;19.39;46.20
62946;BME280;52164;52.212;-1.010;2023-04-09T12:27:58;101053.37;;;19.54;45.91
62946;BME280;52164;52.212;-1.010;2023-04-09T12:30:23;101045.88;;;19.63;45.75
62946;BME280;52164;52.212;-1.010;2023-04-09T12:32:51;101046.65;;;19.80;45.66
62946;BME280;52164;52.212;-1.010;2023-04-09T12:35:18;101047.10;;;19.96;44.69
62946;BME280;52164;52.212;-1.010;2023-04-09T12:37:43;101049.09;;;19.97;44.16
62946;BME280;52164;52.212;-1.010;2023-04-09T12:40:09;101042.71;;;20.09;43.91
62946;BME280;52164;52.212;-1.010;2023-04-09T12:42:37;101038.70;;;20.21;44.27
62946;BME280;52164;52.212;-1.010;2023-04-09T12:45:03;101032.14;;;20.17;44.20
62946;BME280;52164;52.212;-1.010;2023-04-09T12:47:28;101031.08;;;20.16;44.08
62946;BME280;52164;52.212;-1.010;2023-04-09T12:49:54;101030.91;;;20.27;44.63